createdAt,value
2018-06-11T00:02:02.448Z,25.78
2018-06-11T00:04:30.711Z,25.69
2018-06-11T00:06:58.958Z,25.58
2018-06-11T00:09:27.085Z,25.50
2018-06-11T00:11:55.144Z,25.31
2018-06-11T00:14:24.009Z,25.15
2018-06-11T00:16:52.369Z,25.37
2018-06-11T00:19:20.487Z,25.34
2018-06-11T00:21:48.534Z,24.82
2018-06-11T00:24:16.616Z,25.06
2018-06-11T00:26:44.664Z,24.95
2018-06-11T00:29:12.813Z,24.63
2018-06-11T00:31:40.919Z,24.51
2018-06-11T00:34:08.992Z,24.64
2018-06-11T00:36:37.110Z,24.46
2018-06-11T00:39:07.638Z,24.16
2018-06-11T00:41:35.918Z,24.42
2018-06-11T00:44:04.545Z,24.34
2018-06-11T00:46:32.696Z,24.31
2018-06-11T00:49:03.004Z,24.04
2018-06-11T00:51:31.282Z,24.17
2018-06-11T00:54:00.037Z,24.00
2018-06-11T00:56:28.175Z,23.81
2018-06-11T00:58:56.629Z,23.97
2018-06-11T01:01:25.318Z,23.93
2018-06-11T01:03:54.354Z,24.01
2018-06-11T01:06:23.342Z,24.20
2018-06-11T01:08:52.043Z,24.38
2018-06-11T01:11:20.186Z,24.49
2018-06-11T01:13:48.349Z,24.29
2018-06-11T01:16:17.766Z,24.39
2018-06-11T01:18:48.088Z,24.25
2018-06-11T01:21:16.369Z,23.98
2018-06-11T01:23:45.114Z,24.11
2018-06-11T01:26:13.537Z,23.79
2018-06-11T01:28:42.322Z,23.78
2018-06-11T01:31:10.471Z,23.43
2018-06-11T01:33:38.623Z,23.50
2018-06-11T01:36:06.750Z,23.64
2018-06-11T01:38:35.299Z,23.46
2018-06-11T01:41:04.616Z,23.24
2018-06-11T01:43:33.031Z,23.55
2018-06-11T01:46:01.695Z,23.26
2018-06-11T01:48:32.493Z,23.52
2018-06-11T01:51:01.060Z,23.55
2018-06-11T01:53:29.171Z,23.38
2018-06-11T01:55:57.253Z,23.11
2018-06-11T01:58:25.464Z,23.22
2018-06-11T02:00:54.212Z,23.31
2018-06-11T02:03:22.697Z,23.24
2018-06-11T02:05:50.835Z,23.09
2018-06-11T02:08:18.974Z,23.11
2018-06-11T02:10:47.524Z,23.22
2018-06-11T02:13:15.667Z,23.09
2018-06-11T02:15:43.839Z,23.01
2018-06-11T02:18:13.173Z,23.31
2018-06-11T02:20:41.317Z,23.30
2018-06-11T02:23:10.223Z,23.18
2018-06-11T02:25:39.183Z,23.02
2018-06-11T02:28:07.327Z,23.33
2018-06-11T02:30:35.498Z,22.88
2018-06-11T02:33:04.005Z,23.20
2018-06-11T02:35:32.871Z,22.81
2018-06-11T02:38:00.988Z,22.88
2018-06-11T02:40:29.318Z,23.05
2018-06-11T02:42:57.487Z,23.18
2018-06-11T02:45:25.765Z,22.72
2018-06-11T02:47:54.327Z,22.77
2018-06-11T02:50:23.309Z,23.01
2018-06-11T02:54:12.092Z,22.80
2018-06-11T02:56:40.200Z,22.67
2018-06-11T02:59:09.366Z,22.75
2018-06-11T03:01:38.014Z,22.65
2018-06-11T03:04:06.328Z,22.44
2018-06-11T03:06:35.359Z,22.61
2018-06-11T03:09:03.934Z,22.49
2018-06-11T03:11:32.080Z,22.44
2018-06-11T03:14:00.311Z,22.62
2018-06-11T03:16:28.384Z,22.38
2018-06-11T03:18:57.052Z,22.38
2018-06-11T03:21:25.135Z,22.52
2018-06-11T03:23:53.718Z,22.66
2018-06-11T03:26:22.567Z,22.29
2018-06-11T03:28:54.222Z,22.18
2018-06-11T03:31:22.391Z,22.25
2018-06-11T03:33:53.335Z,22.11
2018-06-11T03:36:21.659Z,22.26
2018-06-11T03:38:49.826Z,22.42
2018-06-11T03:41:18.311Z,22.18
2018-06-11T03:43:46.531Z,22.22
2018-06-11T03:46:15.684Z,22.25
2018-06-11T03:48:43.799Z,22.28
2018-06-11T03:51:13.391Z,22.52
2018-06-11T03:53:41.521Z,22.32
2018-06-11T03:56:10.074Z,22.52
2018-06-11T03:58:38.196Z,22.29
2018-06-11T04:01:06.316Z,22.56
2018-06-11T04:03:34.478Z,22.03
2018-06-11T04:06:02.706Z,22.13
2018-06-11T04:08:32.077Z,22.19
2018-06-11T04:11:00.801Z,22.38
2018-06-11T04:13:29.457Z,22.48
2018-06-11T04:15:57.570Z,22.67
2018-06-11T04:18:25.758Z,22.50
2018-06-11T04:20:54.931Z,22.26
2018-06-11T04:23:23.970Z,22.43
2018-06-11T04:25:52.302Z,22.47
2018-06-11T04:28:20.629Z,22.25
2018-06-11T04:30:49.123Z,22.10
2018-06-11T04:33:17.271Z,22.51
2018-06-11T04:35:45.349Z,22.41
2018-06-11T04:38:13.443Z,22.64
2018-06-11T04:40:41.596Z,22.61
2018-06-11T04:43:09.655Z,22.73
2018-06-11T04:45:37.756Z,22.53
2018-06-11T04:48:06.164Z,22.65
2018-06-11T04:50:34.660Z,22.86
2018-06-11T04:53:03.391Z,22.75
2018-06-11T04:55:31.711Z,22.67
2018-06-11T04:57:59.857Z,22.68
2018-06-11T05:00:28.717Z,22.76
2018-06-11T05:02:57.767Z,22.55
2018-06-11T05:05:25.900Z,22.73
2018-06-11T05:15:48.996Z,22.98
2018-06-11T05:18:17.192Z,22.88
2018-06-11T05:20:46.459Z,22.89
2018-06-11T05:23:14.612Z,23.00
2018-06-11T05:25:42.715Z,23.44
2018-06-11T05:28:10.866Z,23.28
2018-06-11T05:30:40.334Z,23.41
2018-06-11T05:33:09.741Z,23.29
2018-06-11T05:35:38.027Z,23.27
2018-06-11T05:38:07.902Z,23.22
2018-06-11T05:40:36.229Z,23.38
2018-06-11T05:43:04.432Z,23.04
2018-06-11T05:45:32.859Z,23.13
2018-06-11T05:48:01.005Z,23.13
2018-06-11T05:50:29.406Z,23.39
2018-06-11T05:52:58.132Z,23.45
2018-06-11T05:55:26.310Z,23.92
2018-06-11T05:57:55.385Z,23.77
2018-06-11T06:00:23.626Z,23.74
2018-06-11T06:02:51.810Z,24.00
2018-06-11T06:05:19.947Z,23.98
2018-06-11T06:07:48.088Z,23.90
2018-06-11T06:10:16.278Z,24.01
2018-06-11T06:12:44.467Z,24.16
2018-06-11T06:15:13.277Z,23.89
2018-06-11T06:17:43.626Z,23.80
2018-06-11T06:20:11.747Z,23.78
2018-06-11T06:22:41.179Z,24.08
2018-06-11T06:25:10.658Z,24.08
2018-06-11T06:27:38.828Z,24.22
2018-06-11T06:30:07.384Z,24.22
2018-06-11T06:32:37.096Z,24.38
2018-06-11T06:35:05.355Z,24.48
2018-06-11T06:37:33.609Z,24.60
2018-06-11T06:40:02.130Z,24.56
2018-06-11T06:42:30.334Z,24.44
2018-06-11T06:44:58.915Z,24.75
2018-06-11T06:47:27.118Z,24.88
2018-06-11T06:49:55.879Z,25.33
2018-06-11T06:52:24.119Z,25.44
2018-06-11T06:54:52.231Z,25.55
2018-06-11T06:57:23.126Z,25.05
2018-06-11T06:59:52.424Z,25.52
2018-06-11T07:02:21.203Z,25.53
2018-06-11T07:04:49.294Z,25.63
2018-06-11T07:07:17.411Z,25.60
2018-06-11T07:09:45.570Z,25.68
2018-06-11T07:12:13.775Z,25.63
2018-06-11T07:14:41.890Z,25.51
2018-06-11T07:17:11.387Z,25.53
2018-06-11T07:19:39.589Z,25.84
2018-06-11T07:22:07.696Z,25.83
2018-06-11T07:24:35.834Z,25.87
2018-06-11T07:27:04.017Z,26.08
2018-06-11T07:29:32.948Z,26.20
2018-06-11T07:32:01.070Z,25.91
2018-06-11T07:34:29.840Z,26.12
2018-06-11T07:36:58.025Z,25.96
2018-06-11T07:39:26.151Z,25.84
2018-06-11T07:41:57.915Z,25.48
2018-06-11T07:44:41.523Z,25.58
2018-06-11T07:47:17.682Z,25.63
2018-06-11T07:49:46.271Z,26.01
2018-06-11T07:52:14.515Z,25.91
2018-06-11T07:54:43.055Z,25.74
2018-06-11T07:57:12.707Z,25.90
2018-06-11T07:59:41.079Z,25.94
2018-06-11T08:02:11.488Z,26.13
2018-06-11T08:04:41.336Z,25.79
2018-06-11T08:07:09.911Z,26.14
2018-06-11T08:09:38.531Z,25.95
2018-06-11T08:12:07.405Z,26.42
2018-06-11T08:14:36.135Z,26.79
2018-06-11T08:17:04.238Z,26.78
2018-06-11T08:19:32.821Z,26.09
2018-06-11T08:22:00.944Z,26.57
2018-06-11T08:24:29.938Z,26.96
2018-06-11T08:26:58.059Z,27.33
2018-06-11T08:29:26.933Z,26.66
2018-06-11T08:31:56.064Z,26.94
2018-06-11T08:34:24.199Z,26.58
2018-06-11T08:36:52.340Z,26.77
2018-06-11T08:39:20.552Z,26.42
2018-06-11T08:41:48.687Z,26.36
2018-06-11T08:44:16.758Z,26.43
2018-06-11T08:46:46.654Z,26.55
2018-06-11T08:49:15.050Z,26.85
2018-06-11T08:51:44.643Z,26.64
2018-06-11T08:54:12.753Z,26.67
2018-06-11T08:56:40.927Z,27.12
2018-06-11T08:59:09.079Z,26.89
2018-06-11T09:01:37.235Z,26.39
2018-06-11T09:04:05.469Z,26.51
2018-06-11T09:06:34.441Z,26.91
2018-06-11T09:09:02.560Z,27.10
2018-06-11T09:11:30.714Z,27.37
2018-06-11T09:13:58.799Z,27.14
2018-06-11T09:16:26.968Z,27.77
2018-06-11T09:18:55.047Z,27.51
2018-06-11T09:21:23.183Z,27.61
2018-06-11T09:23:51.344Z,28.01
2018-06-11T09:26:19.564Z,28.41
2018-06-11T09:28:47.671Z,28.20
2018-06-11T09:31:15.982Z,27.84
2018-06-11T09:33:44.106Z,28.10
2018-06-11T09:36:13.800Z,27.92
2018-06-11T09:38:41.903Z,28.24
2018-06-11T09:41:10.352Z,28.68
2018-06-11T09:43:38.627Z,28.43
2018-06-11T09:46:08.293Z,28.63
2018-06-11T09:48:38.876Z,29.14
2018-06-11T09:51:07.055Z,28.92
2018-06-11T09:53:35.184Z,28.68
2018-06-11T09:56:03.712Z,29.00
2018-06-11T09:58:31.831Z,29.03
2018-06-11T10:00:59.964Z,29.08
2018-06-11T10:03:28.300Z,28.82
2018-06-11T10:05:56.498Z,28.65
2018-06-11T10:08:24.603Z,28.87
2018-06-11T10:10:53.399Z,29.10
2018-06-11T10:13:21.486Z,29.38
2018-06-11T10:15:49.627Z,30.14
2018-06-11T10:18:18.190Z,30.04
2018-06-11T10:20:47.159Z,30.22
2018-06-11T10:23:15.657Z,30.32
2018-06-11T10:25:43.757Z,30.04
2018-06-11T10:28:12.979Z,30.04
2018-06-11T10:30:41.097Z,29.38
2018-06-11T10:33:09.252Z,29.53
2018-06-11T10:35:38.240Z,29.82
2018-06-11T10:38:06.593Z,29.58
2018-06-11T10:40:35.108Z,30.02
2018-06-11T10:43:03.256Z,29.94
2018-06-11T10:45:31.513Z,29.94
2018-06-11T10:47:59.689Z,29.98
2018-06-11T10:50:28.334Z,30.36
2018-06-11T10:52:56.691Z,30.31
2018-06-11T10:55:25.295Z,30.01
2018-06-11T10:57:53.404Z,29.85
2018-06-11T11:00:21.561Z,30.13
2018-06-11T11:02:49.662Z,30.11
2018-06-11T11:05:17.758Z,30.00
2018-06-11T11:07:45.911Z,29.80
2018-06-11T11:10:14.075Z,29.50
2018-06-11T11:12:42.241Z,29.97
2018-06-11T11:15:10.498Z,29.96
2018-06-11T11:17:39.094Z,30.36
2018-06-11T11:20:07.486Z,30.00
2018-06-11T11:22:35.657Z,30.45
2018-06-11T11:25:03.880Z,30.59
2018-06-11T11:27:32.344Z,30.78
2018-06-11T11:30:01.377Z,31.53
2018-06-11T11:32:29.994Z,31.73
2018-06-11T11:34:58.261Z,30.88
2018-06-11T11:37:27.023Z,30.58
2018-06-11T11:39:55.537Z,32.01
2018-06-11T11:42:24.017Z,33.08
2018-06-11T11:44:52.295Z,32.45
2018-06-11T11:47:20.702Z,31.76
2018-06-11T11:49:48.883Z,30.74
2018-06-11T11:52:16.995Z,30.15
2018-06-11T11:54:45.138Z,30.09
2018-06-11T11:57:13.984Z,29.83
2018-06-11T11:59:42.112Z,30.00
2018-06-11T12:02:10.307Z,29.59
2018-06-11T12:04:38.509Z,29.23
2018-06-11T12:07:06.672Z,29.04
2018-06-11T12:09:34.739Z,29.31
2018-06-11T12:12:03.100Z,29.06
2018-06-11T12:14:31.341Z,29.27
2018-06-11T12:16:59.722Z,29.21
2018-06-11T12:19:27.998Z,29.12
2018-06-11T12:21:58.209Z,28.99
2018-06-11T12:24:27.094Z,28.82
2018-06-11T12:26:55.475Z,28.74
2018-06-11T12:29:23.562Z,28.93
2018-06-11T12:31:51.663Z,28.64
2018-06-11T12:34:19.761Z,28.72
2018-06-11T12:36:48.172Z,28.21
2018-06-11T12:39:16.307Z,28.42
2018-06-11T12:41:44.387Z,28.47
2018-06-11T12:44:13.285Z,28.58
2018-06-11T12:46:41.370Z,28.36
2018-06-11T12:49:09.453Z,28.12
2018-06-11T12:51:37.560Z,28.60
2018-06-11T12:54:05.738Z,28.17
2018-06-11T12:56:33.849Z,28.23
2018-06-11T12:59:03.212Z,28.22
2018-06-11T13:01:31.326Z,28.40
2018-06-11T13:03:59.896Z,28.16
2018-06-11T13:06:28.018Z,28.03
2018-06-11T13:08:56.173Z,28.23
2018-06-11T13:11:24.288Z,28.17
2018-06-11T13:13:52.390Z,27.93
2018-06-11T13:16:20.530Z,27.95
2018-06-11T13:18:49.247Z,27.65
2018-06-11T13:21:17.380Z,27.88
2018-06-11T13:23:46.126Z,27.73
2018-06-11T13:26:14.232Z,27.83
2018-06-11T13:28:42.401Z,27.67
2018-06-11T13:31:10.656Z,27.73
2018-06-11T13:33:38.874Z,27.73
2018-06-11T13:36:07.095Z,27.70
2018-06-11T13:38:35.457Z,27.50
2018-06-11T13:41:03.563Z,27.03
2018-06-11T13:43:31.705Z,27.30
2018-06-11T13:45:59.873Z,27.56
2018-06-11T13:48:28.135Z,27.09
2018-06-11T13:50:57.221Z,27.12
2018-06-11T13:53:25.343Z,27.22
2018-06-11T13:55:53.540Z,27.39
2018-06-11T13:58:21.992Z,27.40
2018-06-11T14:00:50.101Z,27.42
2018-06-11T14:03:18.229Z,27.18
2018-06-11T14:05:46.365Z,26.83
2018-06-11T14:08:14.465Z,26.92
2018-06-11T14:10:42.648Z,26.81
2018-06-11T14:13:11.019Z,26.90
2018-06-11T14:15:39.630Z,26.91
2018-06-11T14:18:07.863Z,26.77
2018-06-11T14:20:36.043Z,26.33
2018-06-11T14:23:04.339Z,26.50
2018-06-11T14:25:32.627Z,26.40
2018-06-11T14:28:00.796Z,26.51
2018-06-11T14:30:28.960Z,26.49
2018-06-11T14:32:57.699Z,26.54
2018-06-11T14:35:25.834Z,26.27
2018-06-11T14:37:53.977Z,26.46
2018-06-11T14:40:22.092Z,26.41
2018-06-11T14:42:50.613Z,26.60
2018-06-11T14:45:18.804Z,26.66
2018-06-11T14:47:46.966Z,26.32
2018-06-11T14:50:15.969Z,26.21
2018-06-11T14:52:44.985Z,26.11
2018-06-11T14:55:13.068Z,26.21
2018-06-11T14:57:41.367Z,25.72
2018-06-11T15:00:09.497Z,25.84
2018-06-11T15:02:37.605Z,25.86
2018-06-11T15:05:05.726Z,25.74
2018-06-11T15:07:34.509Z,25.50
2018-06-11T15:10:02.664Z,25.85
2018-06-11T15:12:30.762Z,25.79
2018-06-11T15:14:58.908Z,25.45
2018-06-11T15:17:28.792Z,25.36
2018-06-11T15:19:58.311Z,25.02
2018-06-11T15:22:26.936Z,25.15
2018-06-11T15:25:16.408Z,25.20
2018-06-11T15:27:44.509Z,25.10
2018-06-11T15:30:12.682Z,24.78
2018-06-11T15:32:40.806Z,24.95
2018-06-11T15:35:09.079Z,24.76
2018-06-11T15:37:37.790Z,24.91
2018-06-11T15:40:05.898Z,24.81
2018-06-11T15:42:34.470Z,24.61
2018-06-11T15:45:02.582Z,24.48
2018-06-11T15:47:30.862Z,24.75
2018-06-11T15:49:58.961Z,24.72
2018-06-11T15:52:28.072Z,24.45
2018-06-11T15:54:56.142Z,24.17
2018-06-11T15:57:24.994Z,23.92
2018-06-11T15:59:54.035Z,24.20
2018-06-11T16:02:22.145Z,24.19
2018-06-11T16:04:50.222Z,24.25
2018-06-11T16:07:18.350Z,24.05
2018-06-11T16:09:46.426Z,24.09
2018-06-11T16:12:15.055Z,24.14
2018-06-11T16:14:43.110Z,24.25
2018-06-11T16:17:11.162Z,24.08
2018-06-11T16:19:39.241Z,24.04
2018-06-11T16:22:07.331Z,24.03
2018-06-11T16:24:35.474Z,23.82
2018-06-11T16:27:04.002Z,23.60
2018-06-11T16:29:32.066Z,23.85
2018-06-11T16:32:00.151Z,23.32
2018-06-11T16:34:28.271Z,23.14
2018-06-11T16:36:57.420Z,23.42
2018-06-11T16:39:25.510Z,23.60
2018-06-11T16:41:54.144Z,23.45
2018-06-11T16:44:22.224Z,23.66
2018-06-11T16:46:50.330Z,23.72
2018-06-11T16:49:18.509Z,23.71
2018-06-11T16:51:46.714Z,23.06
2018-06-11T16:54:15.446Z,23.13
2018-06-11T16:56:44.595Z,22.96
2018-06-11T16:59:12.718Z,23.15
2018-06-11T17:01:40.910Z,23.06
2018-06-11T17:04:09.284Z,22.93
2018-06-11T17:06:37.346Z,22.57
2018-06-11T17:09:07.782Z,22.77
2018-06-11T17:11:36.694Z,23.00
2018-06-11T17:14:04.818Z,23.13
2018-06-11T17:16:32.896Z,23.09
2018-06-11T17:19:01.968Z,23.21
2018-06-11T17:21:30.091Z,23.10
2018-06-11T17:23:58.616Z,23.41
2018-06-11T17:26:27.659Z,23.40
2018-06-11T17:28:55.724Z,23.32
2018-06-11T17:31:23.920Z,23.23
2018-06-11T17:33:52.286Z,23.10
2018-06-11T17:36:21.759Z,23.11
2018-06-11T17:38:50.790Z,23.02
2018-06-11T17:41:21.214Z,22.86
2018-06-11T17:43:49.303Z,22.94
2018-06-11T17:46:17.550Z,23.06
2018-06-11T17:48:47.626Z,22.92
2018-06-11T17:51:15.760Z,22.82
2018-06-11T17:53:44.352Z,22.63
2018-06-11T17:56:12.614Z,22.64
2018-06-11T17:58:41.979Z,22.22
2018-06-11T18:01:10.190Z,22.36
2018-06-11T18:03:38.363Z,21.93
2018-06-11T18:06:07.624Z,22.46
2018-06-11T18:08:35.646Z,22.44
2018-06-11T18:11:03.821Z,22.24
2018-06-11T18:13:32.046Z,22.41
2018-06-11T18:16:00.657Z,22.43
2018-06-11T18:18:29.262Z,22.51
2018-06-11T18:20:57.979Z,22.56
2018-06-11T18:23:26.425Z,22.47
2018-06-11T18:25:54.574Z,22.56
2018-06-11T18:28:22.763Z,21.96
2018-06-11T18:30:51.595Z,21.99
2018-06-11T18:33:19.701Z,22.27
2018-06-11T18:35:48.027Z,22.08
2018-06-11T18:38:16.197Z,22.43
2018-06-11T18:40:44.628Z,22.50
2018-06-11T18:43:15.157Z,22.66
2018-06-11T18:45:43.322Z,22.47
2018-06-11T18:48:12.307Z,22.77
2018-06-11T18:50:42.630Z,22.49
2018-06-11T18:53:11.063Z,22.67
2018-06-11T18:55:39.467Z,22.42
2018-06-11T18:58:07.984Z,22.48
2018-06-11T19:00:36.150Z,22.36
2018-06-11T19:03:04.863Z,22.34
2018-06-11T19:05:33.630Z,22.59
2018-06-11T19:08:01.921Z,22.03
2018-06-11T19:10:36.271Z,21.95
2018-06-11T19:13:04.560Z,22.16
2018-06-11T19:15:33.663Z,22.36
2018-06-11T19:18:02.734Z,22.49
2018-06-11T19:20:32.004Z,22.17
2018-06-11T19:23:00.324Z,22.41
2018-06-11T19:25:29.322Z,22.26
2018-06-11T19:27:59.565Z,21.70
2018-06-11T19:30:29.088Z,21.96
2018-06-11T19:32:57.306Z,22.22
2018-06-11T19:35:25.477Z,22.23
2018-06-11T19:37:55.049Z,22.18
2018-06-11T19:40:23.447Z,22.24
2018-06-11T19:42:51.658Z,22.47
2018-06-11T19:45:20.417Z,22.38
2018-06-11T19:47:48.590Z,22.20
2018-06-11T19:50:17.578Z,22.30
2018-06-11T19:52:45.637Z,22.08
2018-06-11T19:55:14.159Z,22.44
2018-06-11T19:57:42.234Z,22.30
2018-06-11T20:00:10.334Z,22.25
2018-06-11T20:02:38.421Z,22.45
2018-06-11T20:05:07.520Z,21.97
2018-06-11T20:07:36.781Z,22.20
2018-06-11T20:10:05.082Z,22.54
2018-06-11T20:12:33.289Z,22.12
2018-06-11T20:15:01.373Z,22.01
2018-06-11T20:17:30.527Z,22.26
2018-06-11T20:20:00.947Z,22.03
2018-06-11T20:22:29.638Z,22.14
2018-06-11T20:24:57.925Z,22.20
2018-06-11T20:27:27.294Z,22.08
2018-06-11T20:29:55.403Z,21.79
2018-06-11T20:32:23.566Z,21.83
2018-06-11T20:34:51.807Z,21.98
2018-06-11T20:37:20.033Z,21.54
2018-06-11T20:39:48.128Z,21.98
2018-06-11T20:42:16.410Z,22.26
2018-06-11T20:44:44.516Z,22.30
2018-06-11T20:47:13.747Z,22.23
2018-06-11T20:49:42.043Z,21.88
2018-06-11T20:52:11.468Z,21.88
2018-06-11T20:54:39.602Z,21.96
2018-06-11T20:57:07.930Z,22.05
2018-06-11T20:59:36.006Z,22.06
2018-06-11T21:02:04.066Z,21.84
2018-06-11T21:04:32.351Z,21.73
2018-06-11T21:07:01.410Z,21.79
2018-06-11T21:09:29.866Z,22.14
2018-06-11T21:11:58.109Z,22.12
2018-06-11T21:14:26.234Z,21.53
2018-06-11T21:16:54.405Z,21.55
2018-06-11T21:19:22.818Z,21.78
2018-06-11T21:21:51.863Z,21.75
2018-06-11T21:24:20.266Z,21.80
2018-06-11T21:26:48.552Z,21.62
2018-06-11T21:29:16.790Z,21.84
2018-06-11T21:31:44.917Z,21.97
2018-06-11T21:34:13.167Z,21.88
2018-06-11T21:36:41.296Z,21.87
2018-06-11T21:39:09.396Z,21.75
2018-06-11T21:41:38.416Z,21.77
2018-06-11T21:44:06.738Z,21.77
2018-06-11T21:46:35.032Z,21.80
2018-06-11T21:49:03.226Z,21.76
2018-06-11T21:51:31.382Z,21.86
2018-06-11T21:54:01.131Z,21.57
2018-06-11T21:56:30.394Z,21.74
2018-06-11T21:58:59.473Z,21.57
2018-06-11T22:01:27.993Z,21.81
2018-06-11T22:03:56.435Z,21.14
2018-06-11T22:06:24.612Z,21.37
2018-06-11T22:08:52.858Z,21.37
2018-06-11T22:11:21.146Z,21.57
2018-06-11T22:13:50.082Z,21.40
2018-06-11T22:16:18.232Z,21.33
2018-06-11T22:18:46.352Z,21.29
2018-06-11T22:21:14.643Z,21.51
2018-06-11T22:23:42.947Z,21.29
2018-06-11T22:26:11.736Z,21.54
2018-06-11T22:28:40.480Z,21.26
2018-06-11T22:31:08.815Z,21.27
2018-06-11T22:33:37.002Z,21.32
2018-06-11T22:36:05.259Z,21.46
2018-06-11T22:38:33.469Z,21.40
2018-06-11T22:41:01.741Z,21.47
2018-06-11T22:43:30.375Z,21.36
2018-06-11T22:45:59.285Z,21.42
2018-06-11T22:48:27.445Z,21.32
2018-06-11T22:50:55.834Z,21.11
2018-06-11T22:53:25.126Z,21.15
2018-06-11T22:55:53.301Z,20.98
2018-06-11T22:58:22.141Z,21.19
2018-06-11T23:00:50.274Z,20.94
2018-06-11T23:03:18.394Z,21.11
2018-06-11T23:05:46.614Z,20.85
2018-06-11T23:08:15.554Z,21.18
2018-06-11T23:10:44.396Z,20.88
2018-06-11T23:13:12.508Z,21.01
2018-06-11T23:15:41.003Z,21.25
2018-06-11T23:18:09.520Z,21.14
2018-06-11T23:20:37.633Z,21.24
2018-06-11T23:23:06.338Z,21.20
2018-06-11T23:25:34.460Z,21.14
2018-06-11T23:28:02.954Z,21.12
2018-06-11T23:30:31.134Z,21.08
2018-06-11T23:32:59.432Z,21.07
2018-06-11T23:35:27.560Z,21.18
2018-06-11T23:37:55.690Z,21.08
2018-06-11T23:40:23.870Z,20.95
2018-06-11T23:42:52.113Z,21.23
2018-06-11T23:45:22.099Z,20.96
2018-06-11T23:47:50.515Z,20.83
2018-06-11T23:50:18.659Z,20.82
2018-06-11T23:52:46.796Z,20.30
2018-06-11T23:55:15.145Z,20.54
2018-06-11T23:57:43.266Z,20.56
